CheckWX is a tool to help pilots better visualize weather data.  It is not intended as a substitute for an official pre-flight weather briefing.

20:51:55 UTC

KSEG METAR
Penn Valley Airport
Selinsgrove, Pennsylvania, USA
Current

9 mins ago

KSEG 262043Z AUTO 28007KT 240V310 10SM VCTS CLR 31/17 A3001 RMK AO2 LTG DSNT N AND NW T03110167
Observed
Jun-26 @ 20:43 UTC
Wind
  • 280° at 7 KTS
Visibility
10 SM
Flight Rules
VFR
Conditions
Area Thunderstorm
Cloud Levels
  • Clear skies
Temperature
31°C / 88°F
Dewpoint
17°C / 63°F
Heat Index
32°C / 89°F
Humidity
43%
Altimeter
30.01" Hg
Pressure
1016.22 hPa
Previous

59 mins ago

KSEG 261953Z AUTO VRB03KT 10SM SCT070 SCT090 31/18 A3002 RMK AO2 LTG DSNT N AND NW SLP160 T03060178
Observed
Jun-26 @ 19:53 UTC
Wind
  • Variable at 3 KTS
Visibility
10 SM
Flight Rules
VFR
Cloud Levels
  • Scattered at 7,000' AGL
  • Scattered at 9,000' AGL
Temperature
31°C / 88°F
Dewpoint
18°C / 64°F
Heat Index
32°C / 90°F
Humidity
46%
Altimeter
30.02" Hg
Pressure
1016.62 hPa
Previous

2 hours ago

KSEG 261853Z AUTO VRB04KT 10SM FEW060 30/18 A3002 RMK AO2 SLP162 T03000178
Observed
Jun-26 @ 18:53 UTC
Wind
  • Variable at 4 KTS
Visibility
10 SM
Flight Rules
VFR
Cloud Levels
  • Few at 6,000' AGL
Temperature
30°C / 86°F
Dewpoint
18°C / 64°F
Heat Index
31°C / 88°F
Humidity
49%
Altimeter
30.02" Hg
Pressure
1016.62 hPa